createdAt,value
2019-03-09T00:01:27.944Z,54.97
2019-03-09T00:03:57.385Z,54.82
2019-03-09T00:06:26.790Z,54.77
2019-03-09T00:08:58.377Z,54.93
2019-03-09T00:11:27.943Z,54.91
2019-03-09T00:13:57.290Z,54.82
2019-03-09T00:16:29.581Z,55.04
2019-03-09T00:18:58.943Z,54.80
2019-03-09T00:21:28.179Z,54.54
2019-03-09T00:24:17.509Z,54.44
2019-03-09T00:27:11.972Z,54.44
2019-03-09T00:29:58.913Z,54.50
2019-03-09T00:32:28.413Z,54.55
2019-03-09T00:34:57.721Z,54.53
2019-03-09T00:37:27.066Z,54.47
2019-03-09T00:39:56.259Z,54.30
2019-03-09T00:42:25.595Z,54.16
2019-03-09T00:44:55.096Z,54.15
2019-03-09T00:47:24.556Z,54.26
2019-03-09T00:49:54.101Z,54.17
2019-03-09T00:52:23.705Z,54.10
2019-03-09T00:54:57.445Z,54.07
2019-03-09T00:57:26.884Z,54.01
2019-03-09T00:59:58.051Z,53.98
2019-03-09T01:02:27.389Z,53.75
2019-03-09T01:04:56.878Z,53.67
2019-03-09T01:07:26.536Z,53.80
2019-03-09T01:09:55.816Z,53.73
2019-03-09T01:12:28.328Z,53.74
2019-03-09T01:14:57.836Z,53.67
2019-03-09T01:17:27.299Z,53.59
2019-03-09T01:19:56.804Z,53.67
2019-03-09T01:22:25.990Z,53.68
2019-03-09T01:24:55.218Z,53.74
2019-03-09T01:27:24.390Z,53.75
2019-03-09T01:29:53.749Z,53.72
2019-03-09T01:32:22.944Z,53.67
2019-03-09T01:34:52.192Z,53.82
2019-03-09T01:37:21.702Z,53.93
2019-03-09T01:39:50.928Z,54.10
2019-03-09T01:42:20.404Z,54.14
2019-03-09T01:44:49.656Z,54.32
2019-03-09T01:47:18.868Z,54.35
2019-03-09T01:49:48.103Z,54.59
2019-03-09T01:52:17.298Z,54.78
2019-03-09T01:54:46.523Z,54.77
2019-03-09T01:57:15.695Z,55.03
2019-03-09T01:59:44.921Z,55.22
2019-03-09T02:02:14.093Z,55.47
2019-03-09T02:04:43.876Z,55.45
2019-03-09T02:07:13.052Z,55.35
2019-03-09T02:09:42.239Z,55.51
2019-03-09T02:12:11.529Z,55.49
2019-03-09T02:14:40.708Z,55.33
2019-03-09T02:17:10.218Z,55.40
2019-03-09T02:19:39.676Z,55.55
2019-03-09T02:22:08.920Z,55.57
2019-03-09T02:24:38.108Z,55.66
2019-03-09T02:27:07.379Z,55.79
2019-03-09T02:29:36.561Z,55.48
2019-03-09T02:32:05.739Z,55.27
2019-03-09T02:34:34.973Z,55.12
2019-03-09T02:37:04.150Z,55.17
2019-03-09T02:39:44.035Z,54.99
2019-03-09T02:42:13.229Z,55.14
2019-03-09T02:44:42.459Z,55.10
2019-03-09T02:47:11.633Z,55.02
2019-03-09T02:49:40.872Z,54.90
2019-03-09T02:52:10.077Z,54.64
2019-03-09T02:54:39.323Z,54.85
2019-03-09T02:57:08.510Z,55.33
2019-03-09T02:59:38.631Z,55.79
2019-03-09T03:02:14.645Z,55.98
2019-03-09T03:04:44.133Z,56.40
2019-03-09T03:07:13.299Z,56.54
2019-03-09T03:09:42.542Z,56.71
2019-03-09T03:12:11.772Z,56.65
2019-03-09T03:14:41.015Z,56.84
2019-03-09T03:17:10.188Z,56.84
2019-03-09T03:19:39.426Z,56.93
2019-03-09T03:22:08.629Z,56.83
2019-03-09T03:24:37.852Z,56.93
2019-03-09T03:27:07.049Z,57.62
2019-03-09T03:29:36.295Z,58.24
2019-03-09T03:32:05.478Z,59.34
2019-03-09T03:34:34.655Z,60.23
2019-03-09T03:37:03.943Z,60.32
2019-03-09T03:39:33.104Z,60.69
2019-03-09T03:42:02.349Z,60.96
2019-03-09T03:44:33.170Z,60.96
2019-03-09T03:47:02.405Z,61.25
2019-03-09T03:49:31.580Z,61.30
2019-03-09T03:52:00.863Z,61.49
2019-03-09T03:54:30.036Z,61.63
2019-03-09T03:57:00.228Z,61.63
2019-03-09T03:59:29.407Z,61.64
2019-03-09T04:01:58.580Z,62.12
2019-03-09T04:04:27.811Z,61.70
2019-03-09T04:06:57.094Z,62.30
2019-03-09T04:09:26.736Z,62.76
2019-03-09T04:11:55.956Z,62.17
2019-03-09T04:14:25.185Z,62.34
2019-03-09T04:16:54.366Z,62.58
2019-03-09T04:19:23.603Z,62.83
2019-03-09T04:21:52.773Z,62.50
2019-03-09T04:24:22.004Z,62.33
2019-03-09T04:26:51.165Z,62.31
2019-03-09T04:29:20.410Z,62.24
2019-03-09T04:31:49.599Z,62.54
2019-03-09T04:34:18.827Z,62.44
2019-03-09T04:36:49.720Z,62.39
2019-03-09T04:39:18.942Z,62.16
2019-03-09T04:41:53.259Z,62.11
2019-03-09T04:44:22.498Z,62.81
2019-03-09T04:46:51.669Z,62.83
2019-03-09T04:49:20.904Z,62.74
2019-03-09T04:51:50.097Z,63.46
2019-03-09T04:54:19.398Z,63.77
2019-03-09T04:56:48.630Z,63.48
2019-03-09T04:59:17.818Z,63.43
2019-03-09T05:01:47.041Z,63.13
2019-03-09T05:04:41.330Z,62.88
2019-03-09T05:07:11.326Z,62.76
2019-03-09T05:10:01.435Z,62.84
2019-03-09T05:12:31.047Z,62.72
2019-03-09T05:15:00.316Z,62.63
2019-03-09T05:17:29.536Z,63.23
2019-03-09T05:19:58.968Z,62.98
2019-03-09T05:22:28.478Z,62.59
2019-03-09T05:24:57.666Z,62.52
2019-03-09T05:27:26.884Z,62.37
2019-03-09T05:29:56.074Z,62.32
2019-03-09T05:32:25.298Z,62.22
2019-03-09T05:34:54.473Z,62.27
2019-03-09T05:37:23.707Z,62.35
2019-03-09T05:39:52.882Z,62.26
2019-03-09T05:42:22.141Z,62.51
2019-03-09T05:44:51.327Z,62.73
2019-03-09T05:47:20.523Z,62.89
2019-03-09T05:49:49.959Z,62.72
2019-03-09T05:52:49.108Z,62.92
2019-03-09T05:55:19.777Z,62.76
2019-03-09T05:57:49.253Z,62.57
2019-03-09T06:00:18.548Z,62.66
2019-03-09T06:02:47.723Z,62.58
2019-03-09T06:06:10.077Z,62.72
2019-03-09T06:08:39.329Z,62.25
2019-03-09T06:11:08.581Z,62.10
2019-03-09T06:13:37.817Z,61.93
2019-03-09T06:16:07.407Z,61.65
2019-03-09T06:18:36.644Z,61.44
2019-03-09T06:21:05.857Z,61.44
2019-03-09T06:23:35.191Z,61.48
2019-03-09T06:26:04.494Z,60.86
2019-03-09T06:28:33.664Z,60.85
2019-03-09T06:31:02.913Z,60.49
2019-03-09T06:33:33.484Z,59.86
2019-03-09T06:36:52.755Z,59.33
2019-03-09T06:39:33.815Z,59.43
2019-03-09T06:42:12.445Z,58.64
2019-03-09T06:44:41.629Z,58.43
2019-03-09T06:47:10.878Z,58.25
2019-03-09T06:49:40.078Z,58.15
2019-03-09T06:52:09.336Z,57.57
2019-03-09T06:54:38.508Z,57.34
2019-03-09T06:57:13.813Z,56.77
2019-03-09T06:59:38.640Z,56.88
2019-03-09T07:02:07.822Z,56.42
2019-03-09T07:04:37.050Z,56.28
2019-03-09T07:07:06.246Z,56.00
2019-03-09T07:09:35.488Z,56.13
2019-03-09T07:12:04.730Z,56.01
2019-03-09T07:15:16.840Z,55.86
2019-03-09T07:17:46.159Z,55.75
2019-03-09T07:20:15.654Z,56.45
2019-03-09T07:22:44.835Z,56.86
2019-03-09T07:25:14.185Z,57.76
2019-03-09T07:27:43.386Z,58.58
2019-03-09T07:30:15.109Z,59.99
2019-03-09T07:32:44.294Z,61.21
2019-03-09T07:35:13.542Z,62.37
2019-03-09T07:37:42.713Z,63.33
2019-03-09T07:40:12.064Z,63.39
2019-03-09T07:42:41.255Z,64.23
2019-03-09T07:45:12.240Z,64.64
2019-03-09T07:47:41.433Z,64.71
2019-03-09T07:50:11.830Z,64.60
2019-03-09T07:52:40.999Z,64.28
2019-03-09T07:55:14.252Z,64.06
2019-03-09T07:57:43.593Z,64.23
2019-03-09T08:00:14.692Z,64.24
2019-03-09T08:02:43.939Z,63.85
2019-03-09T08:05:13.336Z,64.12
2019-03-09T08:07:42.858Z,63.43
2019-03-09T08:10:16.574Z,63.44
2019-03-09T08:12:45.840Z,63.38
2019-03-09T08:15:16.258Z,63.55
2019-03-09T08:17:45.614Z,63.53
2019-03-09T08:20:15.140Z,63.08
2019-03-09T08:22:44.499Z,62.69
2019-03-09T08:25:14.291Z,62.34
2019-03-09T08:27:43.563Z,62.46
2019-03-09T08:30:17.772Z,62.25
2019-03-09T08:32:47.080Z,61.37
2019-03-09T08:35:17.695Z,61.12
2019-03-09T08:37:46.987Z,61.02
2019-03-09T08:40:16.560Z,61.04
2019-03-09T08:42:45.747Z,60.50
2019-03-09T08:45:16.764Z,60.26
2019-03-09T08:47:52.216Z,59.88
2019-03-09T08:50:18.535Z,59.59
2019-03-09T08:52:47.721Z,59.38
2019-03-09T08:55:18.091Z,59.21
2019-03-09T08:57:47.546Z,59.38
2019-03-09T09:00:19.231Z,58.79
2019-03-09T09:02:48.411Z,58.80
2019-03-09T09:05:17.648Z,58.38
2019-03-09T09:07:46.833Z,58.24
2019-03-09T09:10:16.187Z,58.31
2019-03-09T09:12:45.822Z,58.10
2019-03-09T09:15:15.298Z,58.28
2019-03-09T09:17:44.574Z,58.25
2019-03-09T09:20:15.777Z,57.91
2019-03-09T09:22:45.010Z,57.68
2019-03-09T09:25:14.477Z,57.38
2019-03-09T09:27:43.708Z,57.29
2019-03-09T09:30:23.925Z,57.47
2019-03-09T09:32:53.174Z,57.09
2019-03-09T09:35:22.818Z,57.16
2019-03-09T09:37:52.287Z,56.81
2019-03-09T09:40:22.677Z,56.64
2019-03-09T09:42:52.664Z,56.68
2019-03-09T09:45:22.552Z,56.35
2019-03-09T09:47:52.651Z,56.25
2019-03-09T09:50:23.337Z,56.33
2019-03-09T09:52:56.521Z,56.21
2019-03-09T09:55:26.648Z,56.21
2019-03-09T09:57:56.301Z,56.34
2019-03-09T10:00:26.199Z,56.00
2019-03-09T10:02:55.412Z,56.25
2019-03-09T10:05:25.136Z,56.05
2019-03-09T10:07:54.326Z,55.63
2019-03-09T10:10:29.739Z,55.58
2019-03-09T10:12:58.881Z,54.90
2019-03-09T10:15:34.639Z,54.92
2019-03-09T10:18:07.673Z,54.52
2019-03-09T10:20:37.328Z,54.21
2019-03-09T10:23:06.534Z,54.16
2019-03-09T10:25:35.831Z,54.49
2019-03-09T10:28:05.035Z,54.31
2019-03-09T10:30:34.248Z,54.45
2019-03-09T10:33:03.505Z,54.44
2019-03-09T10:35:32.734Z,54.12
2019-03-09T10:38:01.976Z,54.41
2019-03-09T10:40:31.165Z,54.34
2019-03-09T10:43:00.536Z,54.58
2019-03-09T10:45:29.728Z,54.83
2019-03-09T10:47:59.042Z,54.72
2019-03-09T10:50:28.639Z,54.46
2019-03-09T10:52:57.897Z,54.50
2019-03-09T10:55:27.152Z,54.80
2019-03-09T10:57:59.479Z,54.76
2019-03-09T11:00:33.098Z,55.19
2019-03-09T11:03:02.321Z,55.32
2019-03-09T11:05:31.779Z,55.34
2019-03-09T11:08:00.999Z,55.51
2019-03-09T11:10:30.233Z,55.50
2019-03-09T11:12:59.499Z,55.29
2019-03-09T11:15:29.891Z,55.35
2019-03-09T11:17:59.048Z,55.43
2019-03-09T11:20:28.414Z,55.47
2019-03-09T11:22:57.735Z,55.10
2019-03-09T11:25:27.048Z,55.08
2019-03-09T11:27:57.750Z,55.21
2019-03-09T11:30:27.200Z,55.08
2019-03-09T11:32:56.484Z,55.12
2019-03-09T11:35:26.053Z,54.97
2019-03-09T11:37:55.516Z,55.10
2019-03-09T11:40:24.848Z,54.84
2019-03-09T11:42:54.260Z,54.45
2019-03-09T11:45:23.709Z,54.32
2019-03-09T11:47:54.186Z,54.46
2019-03-09T11:50:23.372Z,54.42
2019-03-09T11:52:52.688Z,54.25
2019-03-09T11:55:21.833Z,54.20
2019-03-09T11:57:51.389Z,54.14
2019-03-09T12:00:26.825Z,54.02
2019-03-09T12:02:56.364Z,54.20
2019-03-09T12:05:25.584Z,54.15
2019-03-09T12:07:57.619Z,54.12
2019-03-09T12:10:26.898Z,54.22
2019-03-09T12:12:56.306Z,54.21
2019-03-09T12:15:27.291Z,54.28
2019-03-09T12:17:58.339Z,53.98
2019-03-09T12:20:29.429Z,53.84
2019-03-09T12:23:10.838Z,53.98
2019-03-09T12:25:40.073Z,53.92
2019-03-09T12:28:12.093Z,54.17
2019-03-09T12:30:41.488Z,54.20
2019-03-09T12:33:10.931Z,54.00
2019-03-09T12:35:40.186Z,53.45
2019-03-09T12:38:09.409Z,53.70
2019-03-09T12:40:38.689Z,53.51
2019-03-09T12:43:07.882Z,53.37
2019-03-09T12:45:37.160Z,53.18
2019-03-09T12:48:06.357Z,53.19
2019-03-09T12:50:35.684Z,52.98
2019-03-09T12:53:04.904Z,52.99
2019-03-09T12:55:34.090Z,52.52
2019-03-09T12:58:03.329Z,52.43
2019-03-09T13:00:32.568Z,52.13
2019-03-09T13:03:01.765Z,51.96
2019-03-09T13:05:31.132Z,51.59
2019-03-09T13:08:00.426Z,51.51
2019-03-09T13:10:29.695Z,51.52
2019-03-09T13:12:59.008Z,51.46
2019-03-09T13:15:28.245Z,51.48
2019-03-09T13:17:57.480Z,50.94
2019-03-09T13:20:26.677Z,50.72
2019-03-09T13:22:55.935Z,50.84
2019-03-09T13:25:25.120Z,50.68
2019-03-09T13:27:54.614Z,50.55
2019-03-09T13:30:23.864Z,50.33
2019-03-09T13:32:53.152Z,50.67
2019-03-09T13:35:23.568Z,51.15
2019-03-09T13:37:52.801Z,51.19
2019-03-09T13:40:22.081Z,51.34
2019-03-09T13:42:51.351Z,51.60
2019-03-09T13:45:20.885Z,51.61
2019-03-09T13:47:50.117Z,51.38
2019-03-09T13:50:19.347Z,51.83
2019-03-09T13:52:48.611Z,51.59
2019-03-09T13:55:17.867Z,51.79
2019-03-09T13:57:47.098Z,51.76
2019-03-09T14:00:16.444Z,51.91
2019-03-09T14:02:45.681Z,51.84
2019-03-09T14:05:15.257Z,52.03
2019-03-09T14:07:44.453Z,52.36
2019-03-09T14:10:13.781Z,52.51
2019-03-09T14:12:43.022Z,52.91
2019-03-09T14:15:13.698Z,53.06
2019-03-09T14:17:42.951Z,53.28
2019-03-09T14:20:12.231Z,53.48
2019-03-09T14:22:41.704Z,53.55
2019-03-09T14:25:11.144Z,53.74
2019-03-09T14:27:40.360Z,53.81
2019-03-09T14:30:11.532Z,54.03
2019-03-09T14:32:40.746Z,54.01
2019-03-09T14:35:10.010Z,54.84
2019-03-09T14:37:39.832Z,54.30
2019-03-09T14:40:09.747Z,54.56
2019-03-09T14:42:39.306Z,54.74
2019-03-09T14:45:11.734Z,54.80
2019-03-09T14:47:40.967Z,54.74
2019-03-09T14:50:10.384Z,55.06
2019-03-09T14:52:39.925Z,55.31
2019-03-09T14:55:09.176Z,55.38
2019-03-09T14:57:38.434Z,55.43
2019-03-09T15:00:10.877Z,55.53
2019-03-09T15:02:42.282Z,55.67
2019-03-09T15:05:11.572Z,55.61
2019-03-09T15:07:41.124Z,55.51
2019-03-09T15:10:14.695Z,55.50
2019-03-09T15:12:44.048Z,55.42
2019-03-09T15:15:15.754Z,55.60
2019-03-09T15:17:44.733Z,55.64
2019-03-09T15:20:14.763Z,55.63
2019-03-09T15:22:44.085Z,55.76
2019-03-09T15:25:13.497Z,55.76
2019-03-09T15:27:42.999Z,55.51
2019-03-09T15:30:13.810Z,55.42
2019-03-09T15:32:45.067Z,55.13
2019-03-09T15:35:16.205Z,55.28
2019-03-09T15:37:45.441Z,55.50
2019-03-09T15:40:19.223Z,55.60
2019-03-09T15:42:48.482Z,55.70
2019-03-09T15:45:19.631Z,55.63
2019-03-09T15:47:49.373Z,55.73
2019-03-09T15:50:21.577Z,55.56
2019-03-09T15:52:50.906Z,55.64
2019-03-09T15:55:20.219Z,55.82
2019-03-09T15:57:49.529Z,56.26
2019-03-09T16:00:19.720Z,57.49
2019-03-09T16:02:57.753Z,58.34
2019-03-09T16:05:34.390Z,59.35
2019-03-09T16:08:03.556Z,60.46
2019-03-09T16:10:32.783Z,61.49
2019-03-09T16:13:02.041Z,62.70
2019-03-09T16:15:32.532Z,63.50
2019-03-09T16:18:01.657Z,63.72
2019-03-09T16:20:31.306Z,63.58
2019-03-09T16:23:03.549Z,63.96
2019-03-09T16:25:32.839Z,62.61
2019-03-09T16:28:02.056Z,62.52
2019-03-09T16:30:31.324Z,62.87
2019-03-09T16:33:00.663Z,62.70
2019-03-09T16:35:29.908Z,62.67
2019-03-09T16:37:59.303Z,62.62
2019-03-09T16:40:28.896Z,62.13
2019-03-09T16:43:00.464Z,62.17
2019-03-09T16:45:30.075Z,62.05
2019-03-09T16:47:59.620Z,62.38
2019-03-09T16:50:31.819Z,62.11
2019-03-09T16:53:04.139Z,62.28
2019-03-09T16:55:36.136Z,62.00
2019-03-09T16:58:05.377Z,61.64
2019-03-09T17:00:34.578Z,61.68
2019-03-09T17:03:03.849Z,61.83
2019-03-09T17:05:33.033Z,61.35
2019-03-09T17:08:03.204Z,61.40
2019-03-09T17:10:32.623Z,61.35
2019-03-09T17:13:03.210Z,61.02
2019-03-09T17:15:32.590Z,61.06
2019-03-09T17:18:02.148Z,60.65
2019-03-09T17:20:31.371Z,60.59
2019-03-09T17:23:01.097Z,60.06
2019-03-09T17:25:30.278Z,60.12
2019-03-09T17:27:59.811Z,59.86
2019-03-09T17:30:28.994Z,59.45
2019-03-09T17:32:58.504Z,59.82
2019-03-09T17:35:32.861Z,59.69
2019-03-09T17:38:02.298Z,59.77
2019-03-09T17:40:31.498Z,59.80
2019-03-09T17:43:00.681Z,59.83
2019-03-09T17:45:30.027Z,60.01
2019-03-09T17:47:59.483Z,60.02
2019-03-09T17:50:28.905Z,60.31
2019-03-09T17:52:58.201Z,60.44
2019-03-09T17:55:27.491Z,60.55
2019-03-09T17:57:56.779Z,60.69
2019-03-09T18:00:26.729Z,60.89
2019-03-09T18:02:56.404Z,60.91
2019-03-09T18:05:25.716Z,60.91
2019-03-09T18:07:55.495Z,60.85
2019-03-09T18:10:29.193Z,61.00
2019-03-09T18:12:58.448Z,60.97
2019-03-09T18:15:27.758Z,60.92
2019-03-09T18:17:56.915Z,61.12
2019-03-09T18:20:26.424Z,61.17
2019-03-09T18:22:55.611Z,61.09
2019-03-09T18:25:24.849Z,61.17
2019-03-09T18:27:54.092Z,61.26
2019-03-09T18:30:23.373Z,61.12
2019-03-09T18:32:52.572Z,61.00
2019-03-09T18:35:21.818Z,61.11
2019-03-09T18:37:51.517Z,61.39
2019-03-09T18:40:21.088Z,61.28
2019-03-09T18:42:50.358Z,60.96
2019-03-09T18:45:19.667Z,61.07
2019-03-09T18:47:49.153Z,61.01
2019-03-09T18:50:18.776Z,61.16
2019-03-09T18:52:48.583Z,61.17
2019-03-09T18:55:17.821Z,61.11
2019-03-09T18:57:47.079Z,60.97
2019-03-09T19:00:17.664Z,61.06
2019-03-09T19:02:47.357Z,61.05
2019-03-09T19:05:16.712Z,61.17
2019-03-09T19:07:46.522Z,61.05
2019-03-09T19:10:15.203Z,60.76
2019-03-09T19:12:44.443Z,60.61
2019-03-09T19:15:14.007Z,60.57
2019-03-09T19:17:43.249Z,60.69
2019-03-09T19:20:13.542Z,60.37
2019-03-09T19:22:42.752Z,60.13
2019-03-09T19:25:12.271Z,60.01
2019-03-09T19:27:41.874Z,59.78
2019-03-09T19:30:12.965Z,59.25
2019-03-09T19:32:42.456Z,59.21
2019-03-09T19:35:11.746Z,59.02
2019-03-09T19:37:40.941Z,58.02
2019-03-09T19:40:14.431Z,58.20
2019-03-09T19:42:43.628Z,57.81
2019-03-09T19:45:13.613Z,57.81
2019-03-09T19:47:43.506Z,57.79
2019-03-09T19:50:17.346Z,58.03
2019-03-09T19:52:46.687Z,58.24
2019-03-09T19:55:16.711Z,58.07
2019-03-09T19:57:47.388Z,58.31
2019-03-09T20:00:18.077Z,58.16
2019-03-09T20:02:51.823Z,57.92
2019-03-09T20:05:22.872Z,57.51
2019-03-09T20:07:53.502Z,57.62
2019-03-09T20:10:30.097Z,56.98
2019-03-09T20:13:02.557Z,56.83
2019-03-09T20:15:32.333Z,56.01
2019-03-09T20:18:02.127Z,55.45
2019-03-09T20:20:50.530Z,55.43
2019-03-09T20:23:19.825Z,55.62
2019-03-09T20:25:50.651Z,54.19
2019-03-09T20:28:19.992Z,53.83
2019-03-09T20:30:49.296Z,54.10
2019-03-09T20:33:19.103Z,54.75
2019-03-09T20:35:52.353Z,54.89
2019-03-09T20:38:21.980Z,55.18
2019-03-09T20:40:54.163Z,55.45
2019-03-09T20:43:25.525Z,55.23
2019-03-09T20:45:55.037Z,54.37
2019-03-09T20:48:24.411Z,53.76
2019-03-09T20:50:53.654Z,53.53
2019-03-09T20:53:24.750Z,52.70
2019-03-09T20:55:54.259Z,53.13
2019-03-09T20:58:23.578Z,52.88
2019-03-09T21:00:52.857Z,52.63
2019-03-09T21:03:23.015Z,52.38
2019-03-09T21:05:53.599Z,51.99
2019-03-09T21:08:23.069Z,51.73
2019-03-09T21:10:52.326Z,51.79
2019-03-09T21:13:23.000Z,51.98
2019-03-09T21:15:53.684Z,52.39
2019-03-09T21:18:43.977Z,52.56
2019-03-09T21:21:10.859Z,53.35
2019-03-09T21:23:40.256Z,53.78
2019-03-09T21:26:09.634Z,54.28
2019-03-09T21:28:38.820Z,54.37
2019-03-09T21:31:08.068Z,54.58
2019-03-09T21:33:40.149Z,54.35
2019-03-09T21:36:09.547Z,54.22
2019-03-09T21:38:40.783Z,54.40
2019-03-09T21:41:10.153Z,54.48
2019-03-09T21:43:39.474Z,54.40
2019-03-09T21:46:09.892Z,54.51
2019-03-09T21:48:39.223Z,54.72
2019-03-09T21:51:08.423Z,54.59
2019-03-09T21:53:40.122Z,54.94
2019-03-09T21:56:09.376Z,55.17
2019-03-09T21:58:38.699Z,55.29
2019-03-09T22:01:08.227Z,55.68
2019-03-09T22:03:39.642Z,55.84
2019-03-09T22:06:09.357Z,55.82
2019-03-09T22:08:45.975Z,56.19
2019-03-09T22:11:12.645Z,56.43
2019-03-09T22:13:42.083Z,56.42
2019-03-09T22:16:13.945Z,56.48
2019-03-09T22:18:45.769Z,56.66
2019-03-09T22:21:14.988Z,56.93
2019-03-09T22:23:44.536Z,57.17
2019-03-09T22:26:14.028Z,57.45
2019-03-09T22:28:43.557Z,57.67
2019-03-09T22:31:12.778Z,57.79
2019-03-09T22:33:42.069Z,57.94
2019-03-09T22:36:11.703Z,57.95
2019-03-09T22:38:41.078Z,58.06
2019-03-09T22:41:10.281Z,58.29
2019-03-09T22:43:39.535Z,58.60
2019-03-09T22:46:09.510Z,58.58
2019-03-09T22:48:38.848Z,58.67
2019-03-09T22:51:08.264Z,58.80
2019-03-09T22:53:37.440Z,58.93
2019-03-09T22:56:06.675Z,58.97
2019-03-09T22:58:35.886Z,59.15
2019-03-09T23:01:05.346Z,59.17
2019-03-09T23:03:34.941Z,59.25
2019-03-09T23:06:04.586Z,59.33
2019-03-09T23:08:33.962Z,59.42
2019-03-09T23:11:03.329Z,59.45
2019-03-09T23:13:32.954Z,59.61
2019-03-09T23:16:02.362Z,59.50
2019-03-09T23:18:31.722Z,59.57
2019-03-09T23:21:01.630Z,59.40
2019-03-09T23:23:30.881Z,59.39
2019-03-09T23:26:00.157Z,59.40
2019-03-09T23:28:42.002Z,59.47
2019-03-09T23:31:11.247Z,59.45
2019-03-09T23:33:40.705Z,59.53
2019-03-09T23:36:10.254Z,59.44
2019-03-09T23:38:39.431Z,59.39
2019-03-09T23:41:08.610Z,59.45
2019-03-09T23:43:38.152Z,59.47
2019-03-09T23:46:07.343Z,59.50
2019-03-09T23:48:36.837Z,59.58
2019-03-09T23:51:06.036Z,59.56
2019-03-09T23:53:35.280Z,59.60
2019-03-09T23:56:04.515Z,59.60
2019-03-09T23:58:33.759Z,59.54
